Time;durP1;ratioP1;P1;durP2;ratioP2;P2;SDS_P1;SDS_P2;PMS_P1;PMS_P2;Temp;Humidity;BMP_temperature;BMP_pressure;BME280_temperature;BME280_humidity;BME280_pressure;Samples;Min_cycle;Max_cycle;Signal;HPM_P1;HPM_P2
2021/05/26 00:04:32;;;;;;;4.90;1.52;;;;;;;11.53;61.68;100393.13;20893594;28;20048;-75
2021/05/26 00:14:34;;;;;;;4.63;1.35;;;;;;;11.51;63.25;100389.75;20876196;28;20090;-74
2021/05/26 00:24:35;;;;;;;4.32;1.30;;;;;;;11.51;63.58;100374.03;20875178;28;20523;-71
2021/05/26 00:34:37;;;;;;;4.28;1.00;;;;;;;11.43;62.84;100356.13;20889224;28;20091;-75
2021/05/26 00:44:39;;;;;;;3.22;1.20;;;;;;;11.44;62.10;100362.19;20896232;28;20382;-75
2021/05/26 00:54:41;;;;;;;3.58;1.10;;;;;;;11.35;65.38;100352.25;20876959;28;20049;-75
2021/05/26 01:04:43;;;;;;;7.25;1.48;;;;;;;11.26;68.90;100324.81;20868970;28;20087;-74
2021/05/26 01:14:44;;;;;;;6.95;1.20;;;;;;;11.14;69.72;100315.88;20871491;28;20103;-72
2021/05/26 01:24:46;;;;;;;5.35;1.27;;;;;;;11.07;72.93;100296.22;20857628;28;20107;-75
2021/05/26 01:34:48;;;;;;;5.47;1.23;;;;;;;10.94;73.10;100305.72;20885355;28;20517;-74
2021/05/26 01:44:51;;;;;;;7.80;1.55;;;;;;;10.86;75.92;100307.94;20894570;28;20049;-72
2021/05/26 01:54:53;;;;;;;5.38;1.70;;;;;;;10.66;80.93;100288.13;20875105;28;20049;-73
2021/05/26 02:04:55;;;;;;;3.67;1.17;;;;;;;10.53;83.72;100273.19;20893143;28;20157;-72
2021/05/26 02:14:57;;;;;;;5.78;1.38;;;;;;;10.53;86.13;100262.72;20880392;28;20057;-72
2021/05/26 02:24:59;;;;;;;3.63;1.08;;;;;;;10.53;85.04;100254.84;20883324;28;20084;-73
2021/05/26 02:35:01;;;;;;;6.22;1.30;;;;;;;10.40;85.99;100240.78;20868118;28;20046;-74
2021/05/26 02:45:05;;;;;;;4.70;1.33;;;;;;;10.40;88.92;100235.56;20888305;28;20102;-72
2021/05/26 02:55:07;;;;;;;6.50;1.52;;;;;;;10.28;89.86;100237.91;20897589;28;20045;-72
2021/05/26 03:05:10;;;;;;;6.47;1.55;;;;;;;10.17;88.80;100235.06;20902534;28;20045;-72
2021/05/26 03:15:15;;;;;;;5.05;1.63;;;;;;;10.24;92.17;100220.72;20897204;28;20057;-72
2021/05/26 03:25:17;;;;;;;5.70;1.37;;;;;;;10.22;92.68;100206.88;20900780;28;20053;-72
2021/05/26 03:35:19;;;;;;;6.47;1.58;;;;;;;10.20;94.95;100211.38;20888800;28;20504;-71
2021/05/26 03:45:20;;;;;;;7.38;1.48;;;;;;;10.14;94.73;100229.97;20889766;28;20366;-72
2021/05/26 03:55:24;;;;;;;5.32;1.60;;;;;;;10.02;99.17;100241.09;20885948;28;20048;-72
2021/05/26 04:05:26;;;;;;;6.90;2.17;;;;;;;9.91;100.00;100217.28;20893842;28;20092;-71
2021/05/26 04:15:27;;;;;;;6.20;1.60;;;;;;;10.02;100.00;100198.41;20872417;28;20546;-72
2021/05/26 04:25:29;;;;;;;4.47;1.80;;;;;;;10.08;100.00;100208.53;20885770;28;20601;-71
2021/05/26 04:35:31;;;;;;;4.45;1.75;;;;;;;10.06;100.00;100203.38;20876852;28;20054;-71
2021/05/26 04:45:33;;;;;;;5.22;1.75;;;;;;;10.13;100.00;100196.03;20876392;28;20048;-71
2021/05/26 04:55:35;;;;;;;6.45;2.00;;;;;;;10.10;100.00;100186.63;20853793;28;20476;-71
2021/05/26 05:05:37;;;;;;;5.95;2.05;;;;;;;10.15;100.00;100166.28;20892197;28;20456;-72
2021/05/26 05:15:39;;;;;;;8.60;1.85;;;;;;;10.16;100.00;100160.13;20870688;28;20041;-72
2021/05/26 05:25:41;;;;;;;8.43;2.35;;;;;;;10.23;100.00;100160.63;20886840;28;20311;-72
2021/05/26 05:35:42;;;;;;;9.13;2.20;;;;;;;10.22;100.00;100172.88;20900014;28;20562;-71
2021/05/26 05:45:44;;;;;;;4.80;1.83;;;;;;;10.20;100.00;100182.59;20886217;28;20099;-71
2021/05/26 05:55:46;;;;;;;7.20;2.03;;;;;;;10.23;100.00;100176.31;20885822;28;20076;-72
2021/05/26 06:05:48;;;;;;;9.75;2.13;;;;;;;10.33;100.00;100168.81;20887478;28;20041;-72
2021/05/26 06:15:50;;;;;;;12.80;4.05;;;;;;;10.37;100.00;100160.69;20872342;28;20045;-71
2021/05/26 06:25:52;;;;;;;6.40;2.70;;;;;;;10.51;100.00;100152.06;20891841;28;20041;-71
2021/05/26 06:35:53;;;;;;;7.55;2.65;;;;;;;10.60;100.00;100148.91;20886358;28;20044;-71
2021/05/26 06:45:55;;;;;;;6.63;1.85;;;;;;;10.60;100.00;100149.75;20893654;28;20037;-71
2021/05/26 06:55:57;;;;;;;6.82;1.73;;;;;;;10.59;100.00;100128.91;20910876;28;20109;-71
2021/05/26 07:05:59;;;;;;;6.00;1.50;;;;;;;10.64;100.00;100135.53;20906509;28;20408;-71
2021/05/26 07:16:05;;;;;;;;;;;;;;;10.97;100.00;100132.69;20872729;28;20511;-71
2021/05/26 07:26:07;;;;;;;9.43;1.90;;;;;;;10.86;100.00;100137.75;20876124;28;19920;-70
2021/05/26 07:36:09;;;;;;;8.00;1.52;;;;;;;10.88;100.00;100122.78;20878978;28;20366;-71
2021/05/26 07:46:13;;;;;;;7.03;2.03;;;;;;;11.11;100.00;100135.34;20894082;28;20103;-71
2021/05/26 07:56:15;;;;;;;6.03;1.67;;;;;;;11.27;100.00;100126.53;20876235;28;20059;-71
2021/05/26 08:06:16;;;;;;;7.05;1.48;;;;;;;11.41;100.00;100132.63;20885614;28;20488;-70
2021/05/26 08:16:19;;;;;;;7.80;1.65;;;;;;;11.45;97.94;100128.88;20890957;28;20049;-71
2021/05/26 08:26:22;;;;;;;4.70;1.60;;;;;;;11.67;97.22;100130.16;20874431;28;20053;-71
2021/05/26 08:36:23;;;;;;;8.57;3.40;;;;;;;11.44;97.42;100115.84;20892867;28;20041;-70
2021/05/26 08:46:27;;;;;;;9.43;2.15;;;;;;;11.53;97.67;100120.50;20856430;28;20045;-71
2021/05/26 08:56:29;;;;;;;5.85;1.58;;;;;;;12.06;96.30;100113.66;20874109;28;20049;-69
2021/05/26 09:06:42;;;;;;;6.20;1.20;;;;;;;11.75;96.16;100120.88;20881088;28;20052;-70
2021/05/26 09:16:45;;;;;;;73.55;13.50;;;;;;;12.18;93.76;100107.63;20860051;28;20091;-73
2021/05/26 09:26:51;;;;;;;6.32;1.33;;;;;;;12.09;91.40;100097.75;20887401;28;20477;-71
2021/05/26 09:36:55;;;;;;;4.28;1.40;;;;;;;12.29;92.23;100099.91;20868844;28;20535;-71
2021/05/26 09:46:57;;;;;;;7.30;1.40;;;;;;;12.50;91.02;100090.59;20873154;28;20045;-70
2021/05/26 09:57:07;;;;;;;4.60;1.25;;;;;;;12.63;90.88;100094.06;20876423;28;20106;-71
2021/05/26 10:07:10;;;;;;;4.95;1.23;;;;;;;12.41;90.16;100094.66;20894379;28;20048;-71
2021/05/26 10:17:19;;;;;;;4.35;1.45;;;;;;;12.61;90.88;100085.44;20914820;28;20041;-71
2021/05/26 10:27:33;;;;;;;5.70;1.30;;;;;;;12.42;93.25;100079.75;20894787;28;20049;-72
2021/05/26 10:37:38;;;;;;;6.13;1.42;;;;;;;12.16;94.24;100078.03;20907041;28;20099;-71
2021/05/26 10:47:46;;;;;;;;;;;;;;;12.27;93.31;100080.78;20899758;28;20450;-72
2021/05/26 10:58:13;;;;;;;5.85;1.42;;;;;;;11.71;97.77;100081.81;20894997;28;19971;-71
2021/05/26 11:08:29;;;;;;;4.47;1.50;;;;;;;11.69;98.25;100075.81;20912882;28;20094;-71
2021/05/26 11:18:31;;;;;;;3.78;1.27;;;;;;;11.62;98.21;100078.00;20908413;28;20041;-71
2021/05/26 11:28:35;;;;;;;4.20;1.30;;;;;;;11.46;99.79;100083.38;20888838;28;20493;-71
2021/05/26 11:38:37;;;;;;;5.35;1.52;;;;;;;12.15;96.72;100060.59;20860355;28;20041;-72
2021/05/26 11:48:44;;;;;;;4.22;1.42;;;;;;;11.88;97.29;100064.09;20825173;28;20124;-72
2021/05/26 11:58:46;;;;;;;5.88;1.73;;;;;;;12.33;96.10;100062.00;20869957;28;20071;-72
2021/05/26 12:08:49;;;;;;;3.20;1.20;;;;;;;12.61;94.91;100058.34;20887132;23;20132;-70
2021/05/26 12:18:56;;;;;;;3.97;1.30;;;;;;;12.66;98.07;100051.84;20934580;28;20088;-72
2021/05/26 12:29:03;;;;;;;4.03;1.40;;;;;;;13.05;93.85;100055.31;20962801;28;20455;-72
2021/05/26 12:39:06;;;;;;;5.50;1.52;;;;;;;12.54;97.54;100062.34;20953991;28;20049;-71
2021/05/26 12:49:32;;;;;;;4.25;1.40;;;;;;;12.43;100.00;100052.56;20973704;28;20727;-72
2021/05/26 12:59:39;;;;;;;6.30;2.80;;;;;;;13.06;98.41;100049.09;20956094;28;20445;-73
2021/05/26 13:09:40;;;;;;;2.83;1.15;;;;;;;14.12;93.81;100046.63;20968115;28;20036;-73
2021/05/26 13:19:42;;;;;;;5.28;1.80;;;;;;;14.24;89.28;100042.25;20960200;28;20040;-72
2021/05/26 13:29:44;;;;;;;4.15;1.20;;;;;;;14.47;86.23;100047.50;20956945;28;20041;-71
2021/05/26 13:39:46;;;;;;;3.38;1.10;;;;;;;14.69;82.89;100036.16;20561369;28;20047;-71
2021/05/26 13:49:48;;;;;;;2.45;0.98;;;;;;;14.63;80.37;100033.16;20537224;28;20055;-71
2021/05/26 13:59:49;;;;;;;6.82;1.10;;;;;;;14.93;76.05;100025.53;20540681;28;20055;-72
2021/05/26 14:09:51;;;;;;;1.40;0.65;;;;;;;14.33;76.54;100034.50;20961568;28;20498;-72
2021/05/26 14:19:53;;;;;;;3.35;0.70;;;;;;;14.15;78.97;100035.88;20974507;28;20044;-72
2021/05/26 14:29:55;;;;;;;3.55;0.95;;;;;;;13.13;89.03;100081.91;20966365;28;20394;-72
2021/05/26 14:39:57;;;;;;;2.60;0.88;;;;;;;13.06;97.86;100064.84;20980668;28;20048;-71
2021/05/26 14:49:59;;;;;;;4.47;0.90;;;;;;;13.49;90.66;100058.28;20992786;28;20413;-71
2021/05/26 15:00:00;;;;;;;2.92;0.82;;;;;;;13.64;88.32;100049.28;20991315;28;20076;-70
2021/05/26 15:10:03;;;;;;;3.55;0.90;;;;;;;13.90;88.76;100051.81;20978593;28;20049;-70
2021/05/26 15:20:05;;;;;;;2.13;0.93;;;;;;;14.17;87.03;100059.47;20967069;28;20048;-71
2021/05/26 15:30:09;;;;;;;2.20;0.77;;;;;;;14.29;86.29;100069.06;20963418;28;20099;-72
2021/05/26 15:40:11;;;;;;;2.42;1.00;;;;;;;14.00;86.43;100079.13;20985872;28;20516;-71
2021/05/26 15:50:13;;;;;;;3.90;1.10;;;;;;;14.09;86.38;100074.03;20975570;28;20249;-72
2021/05/26 16:00:19;;;;;;;4.13;1.30;;;;;;;14.13;86.09;100100.94;20975154;28;20102;-72
2021/05/26 16:10:22;;;;;;;3.42;1.10;;;;;;;14.47;86.04;100092.28;20966735;28;20053;-72
2021/05/26 16:20:24;;;;;;;2.00;1.20;;;;;;;14.47;85.65;100104.59;20971273;28;20106;-72
2021/05/26 16:30:26;;;;;;;3.22;1.50;;;;;;;14.45;86.41;100096.81;20936476;28;20064;-72
2021/05/26 16:40:28;;;;;;;2.65;0.90;;;;;;;14.15;87.70;100114.84;20961913;28;20101;-73
2021/05/26 16:50:29;;;;;;;3.17;1.00;;;;;;;14.00;85.47;100131.75;20945815;28;20057;-73
2021/05/26 17:00:32;;;;;;;2.60;1.30;;;;;;;13.90;84.85;100138.63;20923590;28;20047;-73
2021/05/26 17:10:35;;;;;;;2.22;0.98;;;;;;;13.59;79.88;100148.72;20564486;28;20104;-72
2021/05/26 17:20:37;;;;;;;4.85;1.10;;;;;;;13.46;78.41;100147.88;20561477;28;20065;-72
2021/05/26 17:30:39;;;;;;;3.53;0.93;;;;;;;13.40;73.91;100164.13;20565236;28;20060;-72
2021/05/26 17:40:41;;;;;;;3.75;1.25;;;;;;;13.22;74.79;100175.88;20936391;28;20067;-72
2021/05/26 17:50:44;;;;;;;1.25;0.80;;;;;;;13.05;75.02;100184.91;20932534;28;20090;-71
2021/05/26 18:00:46;;;;;;;2.35;1.00;;;;;;;12.83;77.41;100210.91;20926953;28;20044;-72
2021/05/26 18:10:48;;;;;;;1.98;1.10;;;;;;;12.50;88.23;100203.47;20936141;28;20094;-73
2021/05/26 18:20:51;;;;;;;3.70;1.63;;;;;;;12.66;92.50;100213.81;20948268;28;20107;-72
2021/05/26 18:30:54;;;;;;;3.65;1.70;;;;;;;12.29;92.17;100220.63;20940954;28;20053;-71
2021/05/26 18:40:56;;;;;;;6.10;1.90;;;;;;;12.09;93.92;100227.13;20944855;28;20523;-71
2021/05/26 18:50:59;;;;;;;3.45;1.63;;;;;;;11.91;95.07;100242.25;20950560;28;20037;-70
2021/05/26 19:01:02;;;;;;;4.60;1.60;;;;;;;11.63;94.95;100252.69;20945741;28;20041;-71
2021/05/26 19:11:04;;;;;;;4.20;1.85;;;;;;;11.50;97.08;100259.63;20938430;28;20045;-71
2021/05/26 19:21:06;;;;;;;6.10;2.10;;;;;;;11.34;100.00;100270.19;20961358;28;20190;-71
2021/05/26 19:31:08;;;;;;;4.57;1.50;;;;;;;11.26;100.00;100282.06;20919120;28;20101;-72
2021/05/26 19:41:10;;;;;;;3.60;1.40;;;;;;;11.19;99.59;100299.06;20551465;28;20492;-71
2021/05/26 19:51:12;;;;;;;5.30;2.17;;;;;;;11.04;100.00;100306.88;20666867;28;20056;-71
2021/05/26 20:01:13;;;;;;;4.13;1.60;;;;;;;10.95;100.00;100307.41;20608187;28;20103;-72
2021/05/26 20:11:15;;;;;;;7.25;2.20;;;;;;;10.81;100.00;100317.84;20963063;28;20045;-71
2021/05/26 20:21:17;;;;;;;5.10;1.92;;;;;;;10.67;100.00;100322.97;20957796;28;20083;-71
2021/05/26 20:31:19;;;;;;;4.28;2.10;;;;;;;10.50;100.00;100338.78;20903155;28;20054;-70
2021/05/26 20:41:20;;;;;;;9.02;2.42;;;;;;;10.31;100.00;100348.56;20555129;28;20416;-71
2021/05/26 20:51:22;;;;;;;6.05;2.50;;;;;;;10.20;100.00;100354.38;20541854;28;20055;-70
2021/05/26 21:01:24;;;;;;;4.95;2.40;;;;;;;10.11;100.00;100370.50;20616251;28;20094;-71
2021/05/26 21:11:26;;;;;;;4.57;2.20;;;;;;;9.99;100.00;100371.16;20949545;28;20041;-69
2021/05/26 21:21:27;;;;;;;5.68;2.40;;;;;;;9.87;100.00;100376.09;20969221;28;20410;-69
2021/05/26 21:31:29;;;;;;;4.47;2.10;;;;;;;9.85;100.00;100387.56;20906678;28;20164;-69
2021/05/26 21:41:31;;;;;;;4.32;1.60;;;;;;;9.77;100.00;100381.88;20547975;28;20050;-69
2021/05/26 21:51:32;;;;;;;7.15;2.22;;;;;;;9.66;100.00;100398.09;20550395;28;20104;-70
2021/05/26 22:01:34;;;;;;;4.68;2.20;;;;;;;9.54;100.00;100387.44;20621170;28;20098;-69
2021/05/26 22:11:35;;;;;;;5.88;2.40;;;;;;;9.47;100.00;100384.25;20961533;28;20121;-69
2021/05/26 22:21:37;;;;;;;4.88;2.40;;;;;;;9.41;100.00;100381.94;20956930;28;20040;-69
2021/05/26 22:31:39;;;;;;;6.80;2.80;;;;;;;9.35;100.00;100396.16;20959071;28;20045;-69
2021/05/26 22:41:41;;;;;;;5.80;2.72;;;;;;;9.30;100.00;100394.69;20958682;28;20045;-69
2021/05/26 22:51:43;;;;;;;7.13;3.05;;;;;;;9.24;100.00;100389.78;20945318;28;20106;-69
2021/05/26 23:01:44;;;;;;;6.18;2.90;;;;;;;9.18;100.00;100405.75;20895662;28;20055;-70
2021/05/26 23:11:46;;;;;;;14.45;4.00;;;;;;;9.05;100.00;100413.31;20546377;28;20113;-70
2021/05/26 23:21:48;;;;;;;9.52;4.40;;;;;;;8.99;100.00;100408.38;20551264;28;20043;-70
2021/05/26 23:31:49;;;;;;;9.52;4.40;;;;;;;8.98;100.00;100409.31;20625821;28;20045;-70
2021/05/26 23:41:51;;;;;;;8.75;4.50;;;;;;;8.84;100.00;100415.16;20950515;28;20048;-70
2021/05/26 23:51:53;;;;;;;9.18;4.40;;;;;;;8.77;100.00;100419.00;20972697;28;20041;-70
